Time;durP1;ratioP1;P1;durP2;ratioP2;P2;SDS_P1;SDS_P2;PMS_P1;PMS_P2;Temp;Humidity;BMP_temperature;BMP_pressure;BME280_temperature;BME280_humidity;BME280_pressure;Samples;Min_cycle;Max_cycle;Signal;HPM_P1;HPM_P2
2022/06/18 00:01:39;;;;;;;6.65;4.55;;;20.00;99.90;;;;;;5015162;28;20054;-71
2022/06/18 00:04:17;;;;;;;6.80;4.80;;;20.00;99.90;;;;;;4997733;28;20053;-71
2022/06/18 00:06:55;;;;;;;7.97;5.35;;;20.00;99.90;;;;;;5035491;28;20390;-71
2022/06/18 00:09:34;;;;;;;5.47;4.88;;;20.00;99.90;;;;;;5032060;28;20515;-71
2022/06/18 00:14:55;;;;;;;8.20;5.72;;;19.90;99.90;;;;;;5035945;28;20054;-71
2022/06/18 00:17:21;;;;;;;7.63;4.60;;;19.90;99.90;;;;;;4984932;28;20559;-71
2022/06/18 00:19:48;;;;;;;7.30;4.53;;;19.80;99.90;;;;;;5002272;28;20169;-71
2022/06/18 00:22:19;;;;;;;8.30;5.15;;;19.70;99.90;;;;;;4999241;28;20042;-70
2022/06/18 00:24:46;;;;;;;5.90;4.82;;;19.70;99.90;;;;;;5002955;28;20052;-70
2022/06/18 00:27:15;;;;;;;6.53;4.85;;;19.60;99.90;;;;;;4984639;28;20045;-70
2022/06/18 00:29:41;;;;;;;7.70;5.20;;;19.50;99.90;;;;;;5000579;28;20053;-70
2022/06/18 00:32:07;;;;;;;6.75;4.93;;;19.50;99.90;;;;;;5016428;28;20493;-70
2022/06/18 00:34:33;;;;;;;5.72;5.13;;;19.40;99.90;;;;;;4985307;28;20054;-70
2022/06/18 00:36:59;;;;;;;5.60;5.03;;;19.40;99.90;;;;;;4992845;28;20623;-70
2022/06/18 00:39:28;;;;;;;6.88;4.82;;;19.40;99.90;;;;;;4984174;28;20057;-70
2022/06/18 00:41:55;;;;;;;7.88;4.68;;;19.40;99.90;;;;;;4985679;28;20485;-70
2022/06/18 00:44:41;;;;;;;6.10;4.32;;;19.30;99.90;;;;;;4986792;28;20497;-70
2022/06/18 00:47:20;;;;;;;8.02;4.70;;;19.30;99.90;;;;;;4986624;28;20045;-70
2022/06/18 00:50:02;;;;;;;7.15;4.82;;;19.20;99.90;;;;;;5013917;28;20068;-70
2022/06/18 00:52:37;;;;;;;7.00;4.82;;;19.20;99.90;;;;;;5021230;28;20566;-70
2022/06/18 00:55:37;;;;;;;8.15;5.05;;;19.20;99.90;;;;;;5004894;28;20042;-70
2022/06/18 00:58:12;;;;;;;;;;;19.20;99.90;;;;;;5006116;28;20080;-70
2022/06/18 01:00:42;;;;;;;5.85;5.25;;;19.20;99.90;;;;;;4996307;28;20077;-70
2022/06/18 01:03:22;;;;;;;;;;;19.20;99.90;;;;;;5003671;28;20121;-70
2022/06/18 01:05:48;;;;;;;7.18;5.53;;;19.20;99.90;;;;;;4984856;28;19948;-70
2022/06/18 01:08:17;;;;;;;6.72;5.80;;;19.20;99.90;;;;;;4987708;28;20041;-70
2022/06/18 01:10:50;;;;;;;6.82;6.22;;;19.20;99.90;;;;;;5015003;28;20074;-70
2022/06/18 01:13:21;;;;;;;7.70;5.70;;;19.30;99.90;;;;;;4999024;28;20111;-70
2022/06/18 01:15:48;;;;;;;8.05;7.05;;;19.30;99.90;;;;;;5008145;28;20046;-70
2022/06/18 01:18:17;;;;;;;7.22;6.43;;;19.30;99.90;;;;;;5002998;28;20052;-70
2022/06/18 01:20:58;;;;;;;9.60;6.73;;;19.20;99.90;;;;;;4972546;28;20065;-70
2022/06/18 01:23:46;;;;;;;9.80;6.80;;;19.20;99.90;;;;;;5032432;28;20497;-70
2022/06/18 01:26:12;;;;;;;8.40;7.47;;;19.20;99.90;;;;;;5024763;28;20061;-71
2022/06/18 01:28:38;;;;;;;8.20;6.82;;;19.20;99.90;;;;;;4972251;28;20054;-71
2022/06/18 01:31:04;;;;;;;11.05;7.43;;;19.20;99.90;;;;;;4992367;28;20057;-70
2022/06/18 01:33:35;;;;;;;7.32;6.32;;;19.20;99.90;;;;;;4977292;28;20072;-70
2022/06/18 01:36:05;;;;;;;9.25;7.63;;;19.20;99.90;;;;;;4995806;28;20128;-71
2022/06/18 01:38:33;;;;;;;8.63;7.68;;;19.10;99.90;;;;;;5015636;28;20081;-72
2022/06/18 01:43:57;;;;;;;8.95;7.05;;;19.10;99.90;;;;;;5035312;28;20144;-70
2022/06/18 01:46:25;;;;;;;9.57;7.80;;;19.00;99.90;;;;;;5018559;28;20042;-70
2022/06/18 01:48:53;;;;;;;8.30;7.50;;;19.00;99.90;;;;;;5006159;28;20112;-70
2022/06/18 01:51:25;;;;;;;7.85;7.05;;;19.00;99.90;;;;;;4995146;28;20041;-71
2022/06/18 01:53:56;;;;;;;9.75;8.55;;;19.00;99.90;;;;;;5016574;28;20112;-70
2022/06/18 01:56:39;;;;;;;9.27;8.35;;;18.90;99.90;;;;;;5018928;28;20074;-70
2022/06/18 01:59:14;;;;;;;10.82;8.07;;;18.90;99.90;;;;;;5000320;28;20058;-70
2022/06/18 02:01:43;;;;;;;10.80;8.18;;;18.90;99.90;;;;;;4999718;28;20510;-70
2022/06/18 02:04:12;;;;;;;11.55;9.27;;;18.80;99.90;;;;;;4980473;28;20046;-70
2022/06/18 02:06:38;;;;;;;11.43;8.27;;;18.90;99.90;;;;;;4979312;28;20052;-70
2022/06/18 02:09:08;;;;;;;11.90;8.45;;;18.90;99.90;;;;;;4997238;28;20042;-70
2022/06/18 02:11:34;;;;;;;;;;;18.90;99.90;;;;;;5002819;28;21169;-70
2022/06/18 02:14:07;;;;;;;9.32;8.35;;;18.80;99.90;;;;;;4986896;28;20463;-70
2022/06/18 02:16:39;;;;;;;10.95;9.77;;;18.80;99.90;;;;;;5000467;28;20472;-70
2022/06/18 02:19:07;;;;;;;11.20;10.00;;;18.70;99.90;;;;;;5001862;28;20133;-70
2022/06/18 02:21:40;;;;;;;9.88;9.00;;;18.70;99.90;;;;;;4994555;28;20049;-70
2022/06/18 02:24:06;;;;;;;12.45;9.57;;;18.60;99.90;;;;;;5000190;28;20060;-71
2022/06/18 02:26:35;;;;;;;10.18;9.15;;;18.50;99.90;;;;;;5001315;28;20177;-70
2022/06/18 02:29:01;;;;;;;11.98;10.55;;;18.50;99.90;;;;;;5016304;28;20089;-70
2022/06/18 02:31:31;;;;;;;11.93;10.70;;;18.40;99.90;;;;;;4970751;28;20125;-70
2022/06/18 02:34:02;;;;;;;;;;;18.40;99.90;;;;;;5002615;28;20058;-70
2022/06/18 02:36:34;;;;;;;11.90;9.60;;;18.40;99.90;;;;;;5033184;28;19922;-70
2022/06/18 02:39:20;;;;;;;12.15;10.75;;;18.40;99.90;;;;;;4999010;28;20121;-70
2022/06/18 02:41:46;;;;;;;12.18;9.63;;;18.40;99.90;;;;;;5002497;28;20136;-70
2022/06/18 02:44:13;;;;;;;13.02;11.73;;;18.40;99.90;;;;;;5008093;28;20085;-71
2022/06/18 02:46:40;;;;;;;12.05;10.82;;;18.40;99.90;;;;;;5003136;28;20081;-71
2022/06/18 02:49:09;;;;;;;12.23;11.00;;;18.40;99.90;;;;;;5039974;28;20137;-71
2022/06/18 02:51:36;;;;;;;10.48;9.43;;;18.30;99.90;;;;;;5003576;28;20092;-71
2022/06/18 02:54:03;;;;;;;11.45;9.98;;;18.30;99.90;;;;;;4979106;28;20579;-71
2022/06/18 02:56:28;;;;;;;11.25;10.05;;;18.30;99.90;;;;;;4988074;28;20496;-71
2022/06/18 02:58:54;;;;;;;12.93;11.52;;;18.30;99.90;;;;;;4990569;28;20053;-71
2022/06/18 03:01:24;;;;;;;12.98;11.82;;;18.30;99.90;;;;;;4988477;28;20045;-71
2022/06/18 03:03:55;;;;;;;12.77;11.00;;;18.20;99.90;;;;;;5001904;28;20560;-71
2022/06/18 03:06:23;;;;;;;13.15;11.85;;;18.20;99.90;;;;;;4990697;28;20048;-71
2022/06/18 03:08:49;;;;;;;12.73;11.15;;;18.20;99.90;;;;;;4986258;28;20602;-71
2022/06/18 03:14:05;;;;;;;14.43;11.32;;;18.10;99.90;;;;;;5002933;28;20057;-70
2022/06/18 03:16:32;;;;;;;13.00;11.45;;;18.10;99.90;;;;;;5004646;28;20603;-71
2022/06/18 03:18:59;;;;;;;12.27;11.07;;;18.10;99.90;;;;;;4987767;28;20360;-71
2022/06/18 03:21:41;;;;;;;12.63;11.30;;;18.10;99.90;;;;;;4992862;28;20042;-70
2022/06/18 03:24:07;;;;;;;14.25;12.07;;;18.10;99.90;;;;;;4999901;28;20037;-71
2022/06/18 03:26:35;;;;;;;14.30;12.90;;;18.10;99.90;;;;;;5031913;28;20049;-70
2022/06/18 03:29:02;;;;;;;14.95;12.32;;;18.10;99.90;;;;;;5000111;28;20057;-70
2022/06/18 03:31:29;;;;;;;11.23;10.02;;;18.00;99.90;;;;;;5004348;28;20045;-71
2022/06/18 03:33:55;;;;;;;13.98;12.48;;;18.00;99.90;;;;;;4982935;28;20456;-70
2022/06/18 03:36:21;;;;;;;13.57;12.27;;;18.00;99.90;;;;;;4981933;28;20046;-71
2022/06/18 03:38:49;;;;;;;14.18;12.00;;;17.90;99.90;;;;;;4986843;28;20038;-70
2022/06/18 03:41:15;;;;;;;16.15;12.52;;;17.90;99.90;;;;;;4985260;28;20038;-71
2022/06/18 03:43:41;;;;;;;14.73;13.32;;;17.90;99.90;;;;;;4993136;28;20061;-71
2022/06/18 03:46:11;;;;;;;14.25;12.85;;;17.90;99.90;;;;;;4988945;28;20038;-71
2022/06/18 03:48:43;;;;;;;13.63;12.35;;;17.80;99.90;;;;;;4989362;28;20054;-71
2022/06/18 03:51:10;;;;;;;15.23;12.88;;;17.80;99.90;;;;;;5033353;28;20046;-71
2022/06/18 03:53:37;;;;;;;15.73;14.27;;;17.80;99.90;;;;;;4971252;28;20054;-71
2022/06/18 03:56:03;;;;;;;16.00;14.43;;;17.70;99.90;;;;;;4986556;28;20042;-71
2022/06/18 03:58:28;;;;;;;17.55;13.70;;;17.70;99.90;;;;;;5004208;28;20049;-71
2022/06/18 04:00:55;;;;;;;15.73;13.88;;;17.60;99.90;;;;;;5026652;28;20374;-71
2022/06/18 04:03:20;;;;;;;15.32;13.77;;;17.60;99.90;;;;;;5005650;28;20061;-71
2022/06/18 04:05:47;;;;;;;15.88;14.13;;;17.60;99.90;;;;;;5017739;28;20045;-71
2022/06/18 04:08:14;;;;;;;14.45;12.52;;;17.60;99.90;;;;;;5005569;28;20037;-71
2022/06/18 04:10:41;;;;;;;14.75;12.60;;;17.70;99.90;;;;;;4976818;28;20042;-71
2022/06/18 04:13:07;;;;;;;17.50;13.70;;;17.70;99.90;;;;;;5003222;28;20038;-71
2022/06/18 04:15:32;;;;;;;14.02;12.63;;;17.80;99.90;;;;;;4980881;28;20042;-71
2022/06/18 04:17:58;;;;;;;13.80;12.13;;;17.70;99.90;;;;;;5002790;28;20392;-71
2022/06/18 04:20:31;;;;;;;14.50;12.13;;;17.80;99.90;;;;;;5003270;28;20038;-71
2022/06/18 04:22:57;;;;;;;15.68;14.02;;;17.90;99.90;;;;;;5004074;28;20049;-71
2022/06/18 04:25:24;;;;;;;16.05;14.25;;;17.90;99.90;;;;;;5004124;28;20050;-71
2022/06/18 04:27:50;;;;;;;18.75;16.60;;;17.90;99.90;;;;;;5018988;28;20053;-71
2022/06/18 04:30:17;;;;;;;22.63;14.95;;;18.00;99.90;;;;;;4986361;28;20396;-71
2022/06/18 04:32:44;;;;;;;19.70;16.20;;;18.00;99.90;;;;;;5027573;28;20062;-71
2022/06/18 04:35:12;;;;;;;17.35;14.35;;;18.00;99.90;;;;;;5013499;28;20432;-70
2022/06/18 04:37:39;;;;;;;18.20;15.35;;;18.10;99.90;;;;;;4979113;28;20084;-71
2022/06/18 04:40:05;;;;;;;21.73;17.35;;;18.10;99.90;;;;;;4996754;28;20053;-71
2022/06/18 04:42:31;;;;;;;22.00;16.42;;;18.10;99.90;;;;;;4979232;28;20486;-71
2022/06/18 04:44:57;;;;;;;17.95;15.82;;;18.20;99.90;;;;;;4977255;28;20046;-71
2022/06/18 04:47:23;;;;;;;22.10;16.55;;;18.20;99.90;;;;;;4991211;28;20039;-71
2022/06/18 04:49:53;;;;;;;22.55;15.57;;;18.20;99.90;;;;;;4973909;28;20046;-71
2022/06/18 04:52:19;;;;;;;17.67;13.93;;;18.30;99.90;;;;;;4991580;28;20136;-71
2022/06/18 04:54:45;;;;;;;22.17;15.88;;;18.30;99.90;;;;;;5031885;28;20409;-71
2022/06/18 04:57:10;;;;;;;21.25;15.95;;;18.30;99.90;;;;;;4980023;28;20132;-71
2022/06/18 04:59:38;;;;;;;19.23;16.00;;;18.40;99.90;;;;;;4997099;28;20057;-71
2022/06/18 05:02:10;;;;;;;22.30;17.63;;;18.40;99.90;;;;;;5032716;28;20046;-72
2022/06/18 05:04:36;;;;;;;25.20;19.90;;;18.50;99.90;;;;;;5020670;28;20081;-71
2022/06/18 05:07:02;;;;;;;19.80;17.65;;;18.50;99.90;;;;;;5017975;28;20054;-71
2022/06/18 05:09:28;;;;;;;22.70;18.70;;;18.50;99.90;;;;;;4970091;28;20042;-71
2022/06/18 05:11:53;;;;;;;22.85;18.73;;;18.50;99.90;;;;;;4981171;28;20492;-71
2022/06/18 05:14:19;;;;;;;25.10;21.00;;;18.50;99.90;;;;;;4975122;28;20042;-71
2022/06/18 05:16:45;;;;;;;23.23;20.25;;;18.60;99.90;;;;;;4992340;28;20061;-71
2022/06/18 05:19:24;;;;;;;23.40;20.27;;;18.60;99.90;;;;;;5035261;28;20055;-71
2022/06/18 05:21:50;;;;;;;24.75;18.02;;;18.60;99.90;;;;;;4984248;28;20034;-71
2022/06/18 05:24:16;;;;;;;25.25;19.23;;;18.60;99.90;;;;;;5004904;28;20492;-71
2022/06/18 05:26:46;;;;;;;23.15;19.65;;;18.60;99.90;;;;;;5005960;28;20060;-71
2022/06/18 05:29:12;;;;;;;25.83;22.80;;;18.70;99.90;;;;;;5007176;28;20065;-70
2022/06/18 05:31:37;;;;;;;24.10;19.60;;;18.70;99.90;;;;;;4959020;28;20474;-70
2022/06/18 05:34:03;;;;;;;21.55;18.50;;;18.70;99.90;;;;;;5017755;28;20534;-70
2022/06/18 05:36:30;;;;;;;25.80;21.08;;;18.80;99.90;;;;;;5008453;28;20057;-70
2022/06/18 05:39:00;;;;;;;24.02;19.55;;;18.80;99.90;;;;;;5038577;28;20041;-70
2022/06/18 05:41:27;;;;;;;25.23;20.27;;;18.80;99.90;;;;;;5006266;28;20039;-70
2022/06/18 05:43:56;;;;;;;25.27;21.15;;;18.80;99.90;;;;;;4996206;28;20061;-73
2022/06/18 05:46:22;;;;;;;24.77;19.90;;;18.90;99.90;;;;;;5021138;28;20034;-71
2022/06/18 05:48:48;;;;;;;24.67;18.40;;;18.90;99.90;;;;;;5019046;28;20073;-71
2022/06/18 05:51:14;;;;;;;20.20;17.98;;;19.00;99.90;;;;;;5031384;28;20050;-71
2022/06/18 05:53:40;;;;;;;24.65;21.05;;;19.00;99.90;;;;;;4984984;28;20826;-70
2022/06/18 05:56:06;;;;;;;27.30;21.75;;;19.00;99.90;;;;;;5001619;28;20409;-71
2022/06/18 05:58:32;;;;;;;25.45;20.45;;;19.10;99.90;;;;;;5015811;28;20042;-71
2022/06/18 06:00:58;;;;;;;26.55;21.75;;;19.10;99.90;;;;;;4983922;28;20100;-71
2022/06/18 06:03:24;;;;;;;27.00;20.45;;;19.20;99.90;;;;;;4997205;28;20132;-70
2022/06/18 06:05:50;;;;;;;26.33;20.02;;;19.20;99.90;;;;;;5015353;28;20073;-71
2022/06/18 06:08:16;;;;;;;25.40;19.70;;;19.20;99.90;;;;;;5005022;28;20388;-71
2022/06/18 06:13:29;;;;;;;25.33;19.95;;;19.30;99.90;;;;;;5034105;28;20081;-71
2022/06/18 06:15:55;;;;;;;24.40;19.15;;;19.30;99.90;;;;;;5010754;28;20062;-71
2022/06/18 06:18:23;;;;;;;26.70;21.35;;;19.40;99.90;;;;;;4993281;28;20050;-70
2022/06/18 06:20:51;;;;;;;29.05;20.85;;;19.40;99.90;;;;;;5000661;28;20042;-71
2022/06/18 06:23:17;;;;;;;24.92;20.40;;;19.40;99.90;;;;;;4999590;28;20042;-70
2022/06/18 06:25:46;;;;;;;24.77;20.13;;;19.40;99.90;;;;;;5001009;28;20068;-71
2022/06/18 06:28:17;;;;;;;25.23;18.10;;;19.40;99.90;;;;;;5017436;28;20558;-71
2022/06/18 06:30:44;;;;;;;24.35;18.42;;;19.50;99.90;;;;;;5004739;28;20096;-71
2022/06/18 06:33:10;;;;;;;21.25;17.23;;;19.50;99.90;;;;;;5035172;28;20046;-70
2022/06/18 06:35:36;;;;;;;25.60;18.33;;;19.60;99.90;;;;;;5034521;28;20076;-71
2022/06/18 06:38:06;;;;;;;21.45;17.27;;;19.70;99.90;;;;;;5016642;28;20054;-70
2022/06/18 06:40:33;;;;;;;28.48;17.77;;;19.70;99.90;;;;;;5001995;28;20515;-71
2022/06/18 06:42:59;;;;;;;22.23;17.23;;;19.80;99.90;;;;;;4985875;28;20509;-70
2022/06/18 06:45:29;;;;;;;20.77;16.05;;;19.90;99.90;;;;;;4982648;28;20056;-70
2022/06/18 06:47:55;;;;;;;19.98;15.38;;;19.90;99.90;;;;;;4999148;28;20062;-71
2022/06/18 06:50:24;;;;;;;21.67;16.42;;;20.00;99.90;;;;;;5001270;28;20136;-71
2022/06/18 06:52:50;;;;;;;20.88;15.18;;;20.10;99.90;;;;;;4986259;28;20493;-71
2022/06/18 06:58:07;;;;;;;16.08;12.20;;;20.30;99.90;;;;;;5001532;28;20446;-70
2022/06/18 07:00:37;;;;;;;20.50;12.35;;;20.40;99.90;;;;;;4993364;28;20041;-70
2022/06/18 07:03:03;;;;;;;16.67;11.15;;;20.40;99.90;;;;;;4985060;28;20519;-71
2022/06/18 07:05:29;;;;;;;15.80;11.40;;;20.50;99.90;;;;;;4996189;28;20054;-71
2022/06/18 07:07:54;;;;;;;15.35;9.63;;;20.60;99.90;;;;;;4981587;28;20054;-71
2022/06/18 07:10:20;;;;;;;15.85;11.13;;;20.60;99.90;;;;;;4995979;28;20049;-71
2022/06/18 07:12:46;;;;;;;16.05;10.32;;;20.70;99.90;;;;;;4992840;28;20054;-70
2022/06/18 07:15:12;;;;;;;20.70;11.15;;;20.80;99.90;;;;;;4979382;28;20389;-71
2022/06/18 07:17:40;;;;;;;14.15;8.27;;;20.90;99.90;;;;;;4999779;28;20053;-71
2022/06/18 07:20:12;;;;;;;14.25;8.20;;;21.00;99.90;;;;;;4998147;28;20069;-71
2022/06/18 07:22:38;;;;;;;12.80;7.90;;;21.10;99.90;;;;;;5001461;28;20061;-71
2022/06/18 07:25:04;;;;;;;12.55;7.90;;;21.20;99.90;;;;;;4997750;28;20864;-70
2022/06/18 07:27:30;;;;;;;15.32;8.77;;;21.30;99.90;;;;;;5019010;28;20060;-71
2022/06/18 07:29:57;;;;;;;14.65;8.45;;;21.40;99.90;;;;;;4981485;28;20042;-73
2022/06/18 07:32:25;;;;;;;13.52;7.38;;;21.50;99.90;;;;;;4998767;28;20496;-72
2022/06/18 07:34:55;;;;;;;14.77;7.20;;;21.60;99.90;;;;;;4981521;28;20172;-71
2022/06/18 07:37:22;;;;;;;11.35;7.30;;;21.70;99.90;;;;;;4983114;28;20061;-71
2022/06/18 07:39:48;;;;;;;16.35;7.97;;;21.80;99.90;;;;;;4993685;28;20326;-71
2022/06/18 07:42:17;;;;;;;11.20;7.00;;;21.80;99.90;;;;;;4998317;28;20037;-71
2022/06/18 07:44:44;;;;;;;11.02;7.15;;;22.00;99.90;;;;;;4983930;28;20046;-72
2022/06/18 07:47:13;;;;;;;14.07;6.57;;;22.10;99.90;;;;;;4978220;28;20046;-72
2022/06/18 07:49:39;;;;;;;13.55;6.63;;;22.20;99.90;;;;;;5029860;28;20046;-71
2022/06/18 07:52:08;;;;;;;12.15;6.82;;;22.20;99.90;;;;;;4999198;28;20054;-72
2022/06/18 07:54:34;;;;;;;12.55;6.43;;;22.30;99.90;;;;;;4997303;28;20939;-71
2022/06/18 07:57:00;;;;;;;9.25;6.45;;;22.30;99.90;;;;;;4999208;28;20477;-71
2022/06/18 07:59:26;;;;;;;14.65;7.20;;;22.40;99.90;;;;;;5030746;28;20046;-71
2022/06/18 08:01:52;;;;;;;16.13;6.75;;;22.40;99.90;;;;;;4996914;28;20316;-72
2022/06/18 08:04:18;;;;;;;14.93;6.93;;;22.50;99.90;;;;;;4968505;28;20443;-71
2022/06/18 08:06:47;;;;;;;12.45;6.25;;;22.60;99.90;;;;;;4982951;28;20324;-71
2022/06/18 08:09:15;;;;;;;8.47;5.40;;;22.70;99.90;;;;;;5033293;28;20720;-72
2022/06/18 08:11:42;;;;;;;10.27;5.07;;;22.80;99.90;;;;;;5013265;28;20464;-71
2022/06/18 08:14:09;;;;;;;9.65;5.30;;;22.90;99.90;;;;;;4995089;28;20048;-71
2022/06/18 08:16:35;;;;;;;13.35;5.95;;;23.00;99.90;;;;;;4985909;28;20133;-71
2022/06/18 08:19:01;;;;;;;8.98;4.85;;;23.10;99.90;;;;;;4986663;28;20136;-72
2022/06/18 08:21:38;;;;;;;10.90;5.38;;;23.10;99.90;;;;;;5002910;28;20038;-72
2022/06/18 08:24:09;;;;;;;10.60;5.40;;;23.20;99.90;;;;;;5032715;28;20053;-71
2022/06/18 08:26:37;;;;;;;12.50;5.55;;;23.30;99.90;;;;;;4999006;28;20094;-71
2022/06/18 08:29:05;;;;;;;12.32;5.50;;;23.50;99.90;;;;;;4955676;28;20041;-71
2022/06/18 08:31:31;;;;;;;11.07;5.57;;;23.60;99.90;;;;;;5013259;28;20170;-71
2022/06/18 08:33:58;;;;;;;10.63;5.43;;;23.70;99.90;;;;;;5013412;28;20517;-71
2022/06/18 08:36:24;;;;;;;10.50;4.72;;;23.70;99.90;;;;;;5012694;28;20042;-71
2022/06/18 08:38:51;;;;;;;8.40;4.30;;;23.70;99.90;;;;;;4985266;28;20408;-70
2022/06/18 08:41:29;;;;;;;10.75;4.55;;;23.80;99.90;;;;;;4995098;28;20046;-71
2022/06/18 08:44:25;;;;;;;11.23;5.05;;;23.90;99.90;;;;;;4983445;28;20631;-71
2022/06/18 08:47:13;;;;;;;10.27;4.65;;;23.90;99.90;;;;;;5015315;28;20144;-71
2022/06/18 08:50:02;;;;;;;10.63;5.07;;;23.80;99.90;;;;;;5013793;28;20045;-71
2022/06/18 08:52:47;;;;;;;10.15;5.07;;;23.90;99.90;;;;;;4999967;28;20119;-71
2022/06/18 08:56:04;;;;;;;7.88;4.47;;;24.00;99.90;;;;;;5011040;28;20049;-71
2022/06/18 08:58:38;;;;;;;5.30;4.05;;;24.10;99.90;;;;;;4982814;28;20045;-70
2022/06/18 09:01:22;;;;;;;8.18;4.28;;;24.20;99.90;;;;;;4993897;28;20074;-71
2022/06/18 09:04:19;;;;;;;10.57;3.83;;;24.40;99.90;;;;;;5014362;28;20046;-70
2022/06/18 09:06:54;;;;;;;9.07;3.97;;;24.50;99.90;;;;;;5032318;28;20034;-70
2022/06/18 09:09:42;;;;;;;9.57;4.10;;;24.70;99.90;;;;;;4998236;28;20042;-70
2022/06/18 09:12:35;;;;;;;6.72;3.85;;;24.80;99.90;;;;;;4983953;28;20393;-70
2022/06/18 09:15:31;;;;;;;9.80;4.60;;;25.00;99.90;;;;;;5019104;28;20038;-71
2022/06/18 09:18:02;;;;;;;9.35;4.00;;;25.10;99.90;;;;;;4980431;28;20460;-70
2022/06/18 09:20:58;;;;;;;11.05;4.65;;;25.10;99.90;;;;;;4985239;28;20038;-70
2022/06/18 09:23:42;;;;;;;7.05;4.15;;;25.20;99.90;;;;;;4995704;28;20045;-70
2022/06/18 09:26:19;;;;;;;9.82;4.10;;;25.10;99.90;;;;;;4994940;28;20085;-71
2022/06/18 09:29:01;;;;;;;6.68;3.58;;;25.10;99.90;;;;;;4985038;28;20521;-72
2022/06/18 09:31:38;;;;;;;8.52;3.80;;;25.00;99.90;;;;;;5007915;28;20081;-72
2022/06/18 09:34:25;;;;;;;7.72;4.50;;;25.10;99.90;;;;;;5009984;28;20653;-71
2022/06/18 09:37:01;;;;;;;9.02;4.28;;;25.20;99.90;;;;;;5013243;28;20046;-72
2022/06/18 09:39:33;;;;;;;9.38;3.97;;;25.30;99.90;;;;;;4998333;28;20056;-72
2022/06/18 09:42:24;;;;;;;8.55;3.50;;;25.30;99.90;;;;;;5009598;28;20129;-71
2022/06/18 09:44:57;;;;;;;8.95;3.42;;;25.40;99.90;;;;;;5030845;28;20041;-72
2022/06/18 09:47:41;;;;;;;9.65;3.42;;;25.50;99.90;;;;;;5014398;28;20489;-71
2022/06/18 09:50:20;;;;;;;8.55;4.32;;;25.70;99.90;;;;;;4998556;28;20151;-71
2022/06/18 09:52:51;;;;;;;9.40;4.13;;;25.80;99.90;;;;;;5033270;28;20133;-72
2022/06/18 09:55:34;;;;;;;21.40;3.85;;;25.90;99.90;;;;;;4998456;28;20490;-72
2022/06/18 09:58:01;;;;;;;7.55;3.50;;;25.90;99.90;;;;;;4995545;28;20438;-71
2022/06/18 10:00:31;;;;;;;6.95;3.53;;;25.90;99.90;;;;;;4987255;28;20471;-71
2022/06/18 10:02:59;;;;;;;;;;;25.90;99.90;;;;;;4986515;28;20130;-72
2022/06/18 10:08:27;;;;;;;6.85;2.88;;;25.80;99.90;;;;;;5033105;28;20485;-71
2022/06/18 10:11:07;;;;;;;7.32;3.00;;;25.80;99.90;;;;;;5019105;28;20077;-71
2022/06/18 10:13:37;;;;;;;7.85;3.13;;;25.80;99.90;;;;;;5003176;28;20140;-71
2022/06/18 10:16:14;;;;;;;7.78;3.45;;;25.70;99.90;;;;;;5001281;28;20061;-71
2022/06/18 10:19:01;;;;;;;6.45;3.28;;;25.80;99.90;;;;;;5004629;28;20049;-72
2022/06/18 10:21:43;;;;;;;16.08;3.55;;;25.80;99.90;;;;;;5014143;28;20501;-71
2022/06/18 10:24:27;;;;;;;7.30;3.15;;;25.90;99.90;;;;;;5002761;28;20056;-71
2022/06/18 10:27:14;;;;;;;6.35;2.80;;;25.90;99.90;;;;;;5004601;28;20076;-71
2022/06/18 10:29:50;;;;;;;7.40;2.83;;;26.00;99.90;;;;;;5005512;28;20053;-71
2022/06/18 10:32:31;;;;;;;352.75;29.90;;;26.10;99.90;;;;;;5003230;28;20107;-71
2022/06/18 10:35:38;;;;;;;14.57;3.28;;;26.20;99.90;;;;;;4988700;28;20046;-71
2022/06/18 10:38:10;;;;;;;6.15;2.80;;;26.30;99.90;;;;;;4988057;28;20046;-71
2022/06/18 10:41:19;;;;;;;5.60;2.05;;;26.40;99.90;;;;;;4985563;28;20491;-72
2022/06/18 10:44:29;;;;;;;6.70;2.95;;;26.30;99.90;;;;;;4988852;28;20066;-72
2022/06/18 10:47:10;;;;;;;5.95;2.90;;;26.40;99.90;;;;;;5001494;28;20129;-72
2022/06/18 10:49:36;;;;;;;5.05;2.53;;;26.50;99.90;;;;;;5002494;28;20045;-71
2022/06/18 10:52:03;;;;;;;6.72;2.33;;;26.30;99.90;;;;;;4982307;28;20052;-71
2022/06/18 10:54:32;;;;;;;6.85;2.30;;;26.30;99.90;;;;;;5007208;28;20115;-71
2022/06/18 10:56:58;;;;;;;5.20;2.03;;;26.40;99.90;;;;;;4986769;28;20054;-71
2022/06/18 10:59:50;;;;;;;4.85;2.22;;;26.50;99.90;;;;;;4987132;28;20038;-72
2022/06/18 11:02:31;;;;;;;4.28;1.80;;;26.70;99.90;;;;;;4997359;28;20046;-72
2022/06/18 11:05:02;;;;;;;6.10;2.33;;;26.60;99.90;;;;;;5001814;28;20072;-71
2022/06/18 11:07:31;;;;;;;5.80;2.42;;;26.50;99.90;;;;;;4985649;28;20508;-72
2022/06/18 11:10:07;;;;;;;4.82;2.45;;;26.30;99.90;;;;;;4998652;28;20053;-72
2022/06/18 11:12:36;;;;;;;5.82;2.30;;;26.30;99.90;;;;;;4982583;28;20050;-72
2022/06/18 11:15:04;;;;;;;7.25;2.30;;;26.30;99.90;;;;;;5002095;28;20428;-72
2022/06/18 11:17:41;;;;;;;4.68;2.30;;;26.10;99.90;;;;;;4996367;28;21278;-72
2022/06/18 11:20:16;;;;;;;4.22;2.00;;;26.20;99.90;;;;;;4986016;28;20053;-72
2022/06/18 11:22:44;;;;;;;5.32;2.40;;;26.20;99.90;;;;;;5000709;28;20052;-72
2022/06/18 11:25:30;;;;;;;10.60;2.67;;;26.20;99.90;;;;;;4985833;28;20034;-72
2022/06/18 11:27:59;;;;;;;6.13;2.28;;;26.30;99.90;;;;;;5032826;28;20049;-72
2022/06/18 11:30:44;;;;;;;6.68;2.00;;;26.30;99.90;;;;;;4988179;28;20038;-72
2022/06/18 11:33:42;;;;;;;4.15;1.95;;;26.40;99.90;;;;;;4988407;28;20520;-71
2022/06/18 11:36:14;;;;;;;5.03;1.90;;;26.40;99.90;;;;;;4998390;28;20502;-72
2022/06/18 11:38:41;;;;;;;4.53;2.00;;;26.50;99.90;;;;;;5002283;28;20053;-72
2022/06/18 11:41:28;;;;;;;5.20;1.98;;;26.50;99.90;;;;;;5014580;28;20500;-73
2022/06/18 11:44:02;;;;;;;2.67;1.70;;;26.50;99.90;;;;;;5018062;28;20095;-72
2022/06/18 11:46:37;;;;;;;4.22;1.80;;;26.50;99.90;;;;;;4982517;28;20054;-72
2022/06/18 11:49:11;;;;;;;3.22;1.70;;;26.50;99.90;;;;;;5029413;28;20132;-72
2022/06/18 11:51:44;;;;;;;5.57;2.10;;;26.50;99.90;;;;;;4999403;28;20412;-71
2022/06/18 11:54:16;;;;;;;4.20;1.80;;;26.60;99.90;;;;;;4983885;28;20046;-72
2022/06/18 11:56:57;;;;;;;5.15;2.08;;;26.60;99.90;;;;;;5003306;28;20501;-72
2022/06/18 11:59:53;;;;;;;4.00;1.98;;;26.70;99.90;;;;;;5006827;28;20038;-72
2022/06/18 12:02:53;;;;;;;4.30;1.95;;;26.70;99.90;;;;;;4989024;28;20042;-73
2022/06/18 12:05:41;;;;;;;6.85;2.47;;;26.60;99.90;;;;;;5001123;28;20073;-73
2022/06/18 12:08:07;;;;;;;4.25;2.00;;;26.70;99.90;;;;;;5019250;28;20420;-72
2022/06/18 12:11:02;;;;;;;7.13;1.90;;;26.60;99.90;;;;;;5015809;28;20054;-72
2022/06/18 12:13:39;;;;;;;4.70;1.92;;;26.60;99.90;;;;;;4981167;28;20054;-72
2022/06/18 12:16:19;;;;;;;12.45;2.70;;;26.50;99.90;;;;;;5016602;28;20124;-72
2022/06/18 12:18:58;;;;;;;10.95;2.35;;;26.50;99.90;;;;;;4985735;28;20132;-71
2022/06/18 12:21:41;;;;;;;5.95;2.42;;;26.50;99.90;;;;;;4985853;28;20125;-72
2022/06/18 12:24:37;;;;;;;3.70;1.63;;;26.50;99.90;;;;;;5024886;28;20448;-72
2022/06/18 12:27:19;;;;;;;5.15;2.00;;;26.50;99.90;;;;;;4999677;28;20452;-72
2022/06/18 12:29:58;;;;;;;6.50;1.77;;;26.30;99.90;;;;;;5010402;28;20379;-71
2022/06/18 12:32:56;;;;;;;4.43;2.30;;;26.30;99.90;;;;;;4983409;28;20623;-73
2022/06/18 12:35:44;;;;;;;5.28;1.52;;;26.50;99.90;;;;;;5003575;28;20037;-72
2022/06/18 12:38:31;;;;;;;3.03;1.20;;;26.70;99.90;;;;;;4984979;28;20057;-73
2022/06/18 12:41:20;;;;;;;4.75;1.63;;;26.60;99.90;;;;;;4996139;28;20169;-73
2022/06/18 12:43:56;;;;;;;3.53;1.30;;;26.50;99.90;;;;;;5001579;28;20567;-71
2022/06/18 12:46:36;;;;;;;2.72;1.10;;;26.50;99.90;;;;;;5006781;28;20073;-72
2022/06/18 12:49:08;;;;;;;20.42;5.20;;;26.60;99.90;;;;;;4998507;28;20393;-72
2022/06/18 12:51:40;;;;;;;3.75;1.40;;;26.60;99.90;;;;;;4999762;28;20038;-72
2022/06/18 12:54:20;;;;;;;5.57;1.38;;;26.70;99.90;;;;;;4986112;28;20053;-72
2022/06/18 12:57:20;;;;;;;5.07;1.50;;;26.90;99.90;;;;;;5015516;28;20081;-72
2022/06/18 13:00:13;;;;;;;2.90;1.30;;;27.20;99.90;;;;;;4997800;28;20049;-72
2022/06/18 13:03:07;;;;;;;6.03;1.58;;;27.10;99.90;;;;;;4982448;28;20050;-71
2022/06/18 13:05:44;;;;;;;3.97;1.40;;;27.00;99.90;;;;;;5033194;28;20100;-72
2022/06/18 13:08:41;;;;;;;4.68;1.30;;;26.90;99.90;;;;;;4981046;28;20096;-73
2022/06/18 13:11:21;;;;;;;5.68;1.27;;;26.90;99.10;;;;;;4997418;28;20571;-72
2022/06/18 13:14:08;;;;;;;3.75;1.27;;;26.70;99.20;;;;;;4987026;28;20416;-71
2022/06/18 13:16:36;;;;;;;3.13;1.30;;;26.60;99.50;;;;;;5032565;28;20342;-72
2022/06/18 13:19:28;;;;;;;4.97;1.15;;;26.50;99.90;;;;;;4998757;28;20042;-72
2022/06/18 13:21:54;;;;;;;3.85;1.25;;;26.50;99.90;;;;;;4994665;28;20628;-72
2022/06/18 13:30:36;;;;;;;3.90;1.40;;;25.70;99.90;;;;;;4990671;28;20219;-72